sensor_id;sensor_type;location;lat;lon;timestamp;temperature;humidity
2010;DHT22;1008;47.404;8.502;2023-04-01T00:01:05;8.80;99.90
2010;DHT22;1008;47.404;8.502;2023-04-01T00:03:32;8.50;99.90
2010;DHT22;1008;47.404;8.502;2023-04-01T00:06:00;8.50;99.90
2010;DHT22;1008;47.404;8.502;2023-04-01T00:08:28;8.50;99.90
2010;DHT22;1008;47.404;8.502;2023-04-01T00:10:56;8.50;99.90
2010;DHT22;1008;47.404;8.502;2023-04-01T00:13:24;8.70;99.90
2010;DHT22;1008;47.404;8.502;2023-04-01T00:15:51;8.60;99.90
2010;DHT22;1008;47.404;8.502;2023-04-01T00:18:19;8.70;99.90
2010;DHT22;1008;47.404;8.502;2023-04-01T00:20:46;8.60;99.90
2010;DHT22;1008;47.404;8.502;2023-04-01T00:23:14;8.60;99.90
2010;DHT22;1008;47.404;8.502;2023-04-01T00:25:41;8.60;99.90
2010;DHT22;1008;47.404;8.502;2023-04-01T00:28:09;8.50;99.90
2010;DHT22;1008;47.404;8.502;2023-04-01T00:30:36;8.50;99.90
2010;DHT22;1008;47.404;8.502;2023-04-01T00:33:03;8.60;99.90
2010;DHT22;1008;47.404;8.502;2023-04-01T00:35:30;8.60;99.90
2010;DHT22;1008;47.404;8.502;2023-04-01T00:37:57;8.50;99.90
2010;DHT22;1008;47.404;8.502;2023-04-01T00:40:27;8.60;99.90
2010;DHT22;1008;47.404;8.502;2023-04-01T00:42:55;8.60;99.90
2010;DHT22;1008;47.404;8.502;2023-04-01T00:45:30;8.70;99.90
2010;DHT22;1008;47.404;8.502;2023-04-01T00:47:59;8.70;99.90
2010;DHT22;1008;47.404;8.502;2023-04-01T00:50:28;8.70;99.90
2010;DHT22;1008;47.404;8.502;2023-04-01T00:52:56;8.70;99.90
2010;DHT22;1008;47.404;8.502;2023-04-01T00:55:23;8.50;99.90
2010;DHT22;1008;47.404;8.502;2023-04-01T00:57:53;8.50;99.90
2010;DHT22;1008;47.404;8.502;2023-04-01T01:00:21;8.60;99.90
2010;DHT22;1008;47.404;8.502;2023-04-01T01:02:50;8.80;99.90
2010;DHT22;1008;47.404;8.502;2023-04-01T01:05:19;8.50;99.90
2010;DHT22;1008;47.404;8.502;2023-04-01T01:07:53;8.50;99.90
2010;DHT22;1008;47.404;8.502;2023-04-01T01:10:24;8.50;99.90
2010;DHT22;1008;47.404;8.502;2023-04-01T01:12:59;8.40;99.90
2010;DHT22;1008;47.404;8.502;2023-04-01T01:15:33;8.40;99.90
2010;DHT22;1008;47.404;8.502;2023-04-01T01:18:11;8.20;99.90
2010;DHT22;1008;47.404;8.502;2023-04-01T01:20:51;8.20;99.90
2010;DHT22;1008;47.404;8.502;2023-04-01T01:23:48;8.20;99.90
2010;DHT22;1008;47.404;8.502;2023-04-01T01:26:57;8.10;99.90
2010;DHT22;1008;47.404;8.502;2023-04-01T01:29:52;8.10;99.90
2010;DHT22;1008;47.404;8.502;2023-04-01T01:32:55;8.10;99.90
2010;DHT22;1008;47.404;8.502;2023-04-01T01:35:30;8.10;99.90
2010;DHT22;1008;47.404;8.502;2023-04-01T01:38:00;8.00;99.90
2010;DHT22;1008;47.404;8.502;2023-04-01T01:40:29;8.30;99.90
2010;DHT22;1008;47.404;8.502;2023-04-01T01:43:00;8.20;99.90
2010;DHT22;1008;47.404;8.502;2023-04-01T01:45:31;8.20;99.90
2010;DHT22;1008;47.404;8.502;2023-04-01T01:47:59;8.20;99.90
2010;DHT22;1008;47.404;8.502;2023-04-01T01:50:27;8.20;99.90
2010;DHT22;1008;47.404;8.502;2023-04-01T01:53:04;8.20;99.90
2010;DHT22;1008;47.404;8.502;2023-04-01T01:55:32;8.30;99.90
2010;DHT22;1008;47.404;8.502;2023-04-01T01:58:04;8.30;99.90
2010;DHT22;1008;47.404;8.502;2023-04-01T02:00:33;8.60;99.90
2010;DHT22;1008;47.404;8.502;2023-04-01T02:03:00;8.30;99.90
2010;DHT22;1008;47.404;8.502;2023-04-01T02:05:30;8.50;99.90
2010;DHT22;1008;47.404;8.502;2023-04-01T02:08:01;8.40;99.90
2010;DHT22;1008;47.404;8.502;2023-04-01T02:10:32;8.30;99.90
2010;DHT22;1008;47.404;8.502;2023-04-01T02:13:04;8.30;99.90
2010;DHT22;1008;47.404;8.502;2023-04-01T02:15:33;8.30;99.90
2010;DHT22;1008;47.404;8.502;2023-04-01T02:18:03;8.30;99.90
2010;DHT22;1008;47.404;8.502;2023-04-01T02:20:32;8.30;99.90
2010;DHT22;1008;47.404;8.502;2023-04-01T02:22:59;8.40;99.90
2010;DHT22;1008;47.404;8.502;2023-04-01T02:25:28;8.30;99.90
2010;DHT22;1008;47.404;8.502;2023-04-01T02:27:57;8.20;99.90
2010;DHT22;1008;47.404;8.502;2023-04-01T02:30:26;8.30;99.90
2010;DHT22;1008;47.404;8.502;2023-04-01T02:32:55;8.30;99.90
2010;DHT22;1008;47.404;8.502;2023-04-01T02:35:22;8.20;99.90
2010;DHT22;1008;47.404;8.502;2023-04-01T02:37:52;8.30;99.90
2010;DHT22;1008;47.404;8.502;2023-04-01T02:40:19;8.20;99.90
2010;DHT22;1008;47.404;8.502;2023-04-01T02:42:46;8.40;99.90
2010;DHT22;1008;47.404;8.502;2023-04-01T02:45:13;8.30;99.90
2010;DHT22;1008;47.404;8.502;2023-04-01T02:47:40;8.20;99.90
2010;DHT22;1008;47.404;8.502;2023-04-01T02:50:08;8.20;99.90
2010;DHT22;1008;47.404;8.502;2023-04-01T02:52:35;8.20;99.90
2010;DHT22;1008;47.404;8.502;2023-04-01T02:55:05;8.10;99.90
2010;DHT22;1008;47.404;8.502;2023-04-01T02:57:32;8.10;99.90
2010;DHT22;1008;47.404;8.502;2023-04-01T02:59:58;8.10;99.90
2010;DHT22;1008;47.404;8.502;2023-04-01T03:02:25;8.20;99.90
2010;DHT22;1008;47.404;8.502;2023-04-01T03:04:52;8.10;99.90
2010;DHT22;1008;47.404;8.502;2023-04-01T03:07:19;8.00;99.90
2010;DHT22;1008;47.404;8.502;2023-04-01T03:09:46;8.10;99.90
2010;DHT22;1008;47.404;8.502;2023-04-01T03:12:14;8.10;99.90
2010;DHT22;1008;47.404;8.502;2023-04-01T03:14:40;8.10;99.90
2010;DHT22;1008;47.404;8.502;2023-04-01T03:17:09;8.00;99.90
2010;DHT22;1008;47.404;8.502;2023-04-01T03:19:36;8.10;99.90
2010;DHT22;1008;47.404;8.502;2023-04-01T03:22:03;8.00;99.90
2010;DHT22;1008;47.404;8.502;2023-04-01T03:24:30;8.00;99.90
2010;DHT22;1008;47.404;8.502;2023-04-01T03:26:56;8.00;99.90
2010;DHT22;1008;47.404;8.502;2023-04-01T03:29:24;8.00;99.90
2010;DHT22;1008;47.404;8.502;2023-04-01T03:31:51;8.00;99.90
2010;DHT22;1008;47.404;8.502;2023-04-01T03:34:18;8.00;99.90
2010;DHT22;1008;47.404;8.502;2023-04-01T03:36:45;8.10;99.90
2010;DHT22;1008;47.404;8.502;2023-04-01T03:39:11;8.10;99.90
2010;DHT22;1008;47.404;8.502;2023-04-01T03:41:38;8.10;99.90
2010;DHT22;1008;47.404;8.502;2023-04-01T03:44:05;8.10;99.90
2010;DHT22;1008;47.404;8.502;2023-04-01T03:46:33;8.30;99.90
2010;DHT22;1008;47.404;8.502;2023-04-01T03:49:00;8.00;99.90
2010;DHT22;1008;47.404;8.502;2023-04-01T03:51:27;8.30;99.90
2010;DHT22;1008;47.404;8.502;2023-04-01T03:53:54;8.00;99.90
2010;DHT22;1008;47.404;8.502;2023-04-01T03:56:20;8.00;99.90
2010;DHT22;1008;47.404;8.502;2023-04-01T03:58:47;8.10;99.90
2010;DHT22;1008;47.404;8.502;2023-04-01T04:01:16;8.10;99.90
2010;DHT22;1008;47.404;8.502;2023-04-01T04:03:44;8.20;99.90
2010;DHT22;1008;47.404;8.502;2023-04-01T04:06:12;8.40;99.90
2010;DHT22;1008;47.404;8.502;2023-04-01T04:08:39;8.30;99.90
2010;DHT22;1008;47.404;8.502;2023-04-01T04:11:06;8.20;99.90
2010;DHT22;1008;47.404;8.502;2023-04-01T04:13:33;8.20;99.90
2010;DHT22;1008;47.404;8.502;2023-04-01T04:16:01;8.10;99.90
2010;DHT22;1008;47.404;8.502;2023-04-01T04:18:28;8.20;99.90
2010;DHT22;1008;47.404;8.502;2023-04-01T04:20:56;8.50;99.90
2010;DHT22;1008;47.404;8.502;2023-04-01T04:23:23;8.20;99.90
2010;DHT22;1008;47.404;8.502;2023-04-01T04:25:55;8.20;99.90
2010;DHT22;1008;47.404;8.502;2023-04-01T04:28:22;8.20;99.90
2010;DHT22;1008;47.404;8.502;2023-04-01T04:30:49;8.30;99.90
2010;DHT22;1008;47.404;8.502;2023-04-01T04:33:16;8.20;99.90
2010;DHT22;1008;47.404;8.502;2023-04-01T04:35:42;8.20;99.90
2010;DHT22;1008;47.404;8.502;2023-04-01T04:38:11;8.20;99.90
2010;DHT22;1008;47.404;8.502;2023-04-01T04:40:38;8.00;99.90
2010;DHT22;1008;47.404;8.502;2023-04-01T04:43:05;8.00;99.90
2010;DHT22;1008;47.404;8.502;2023-04-01T04:45:31;7.90;99.90
2010;DHT22;1008;47.404;8.502;2023-04-01T04:47:58;7.80;99.90
2010;DHT22;1008;47.404;8.502;2023-04-01T04:50:25;7.70;99.90
2010;DHT22;1008;47.404;8.502;2023-04-01T04:52:52;7.70;99.90
2010;DHT22;1008;47.404;8.502;2023-04-01T04:55:21;7.70;99.90
2010;DHT22;1008;47.404;8.502;2023-04-01T04:57:48;7.60;99.90
2010;DHT22;1008;47.404;8.502;2023-04-01T05:00:15;7.60;99.90
2010;DHT22;1008;47.404;8.502;2023-04-01T05:02:42;7.60;99.90
2010;DHT22;1008;47.404;8.502;2023-04-01T05:05:09;7.50;99.90
2010;DHT22;1008;47.404;8.502;2023-04-01T05:07:36;7.40;99.90
2010;DHT22;1008;47.404;8.502;2023-04-01T05:10:03;7.40;99.90
2010;DHT22;1008;47.404;8.502;2023-04-01T05:12:31;7.40;99.90
2010;DHT22;1008;47.404;8.502;2023-04-01T05:15:02;7.40;99.90
2010;DHT22;1008;47.404;8.502;2023-04-01T05:17:29;7.40;99.90
2010;DHT22;1008;47.404;8.502;2023-04-01T05:19:56;7.50;99.90
2010;DHT22;1008;47.404;8.502;2023-04-01T05:22:22;7.60;99.90
2010;DHT22;1008;47.404;8.502;2023-04-01T05:24:49;7.80;99.90
2010;DHT22;1008;47.404;8.502;2023-04-01T05:27:16;7.80;99.90
2010;DHT22;1008;47.404;8.502;2023-04-01T05:29:44;7.70;99.90
2010;DHT22;1008;47.404;8.502;2023-04-01T05:32:11;7.50;99.90
2010;DHT22;1008;47.404;8.502;2023-04-01T05:34:38;7.50;99.90
2010;DHT22;1008;47.404;8.502;2023-04-01T05:37:05;7.70;99.90
2010;DHT22;1008;47.404;8.502;2023-04-01T05:39:36;7.50;99.90
2010;DHT22;1008;47.404;8.502;2023-04-01T05:42:03;7.40;99.90
2010;DHT22;1008;47.404;8.502;2023-04-01T05:44:31;7.30;99.90
2010;DHT22;1008;47.404;8.502;2023-04-01T05:46:59;7.50;99.90
2010;DHT22;1008;47.404;8.502;2023-04-01T05:49:26;7.50;99.90
2010;DHT22;1008;47.404;8.502;2023-04-01T05:51:53;7.50;99.90
2010;DHT22;1008;47.404;8.502;2023-04-01T05:54:20;7.80;99.90
2010;DHT22;1008;47.404;8.502;2023-04-01T05:56:47;7.80;99.90
2010;DHT22;1008;47.404;8.502;2023-04-01T05:59:14;7.60;99.90
2010;DHT22;1008;47.404;8.502;2023-04-01T06:01:40;7.70;99.90
2010;DHT22;1008;47.404;8.502;2023-04-01T06:04:13;7.70;99.90
2010;DHT22;1008;47.404;8.502;2023-04-01T06:06:40;7.70;99.90
2010;DHT22;1008;47.404;8.502;2023-04-01T06:09:12;7.70;99.90
2010;DHT22;1008;47.404;8.502;2023-04-01T06:11:46;7.80;99.90
2010;DHT22;1008;47.404;8.502;2023-04-01T06:14:27;7.80;99.90
2010;DHT22;1008;47.404;8.502;2023-04-01T06:17:07;7.80;99.90
2010;DHT22;1008;47.404;8.502;2023-04-01T06:19:41;7.80;99.90
2010;DHT22;1008;47.404;8.502;2023-04-01T06:22:34;8.20;99.90
2010;DHT22;1008;47.404;8.502;2023-04-01T06:25:31;8.00;99.90
2010;DHT22;1008;47.404;8.502;2023-04-01T06:31:05;8.10;99.90
2010;DHT22;1008;47.404;8.502;2023-04-01T06:33:46;8.20;99.90
2010;DHT22;1008;47.404;8.502;2023-04-01T06:39:22;8.20;99.90
2010;DHT22;1008;47.404;8.502;2023-04-01T06:42:19;8.30;99.90
2010;DHT22;1008;47.404;8.502;2023-04-01T06:44:57;8.40;99.90
2010;DHT22;1008;47.404;8.502;2023-04-01T06:47:39;8.40;99.90
2010;DHT22;1008;47.404;8.502;2023-04-01T06:50:19;8.50;99.90
2010;DHT22;1008;47.404;8.502;2023-04-01T06:52:55;8.40;99.90
2010;DHT22;1008;47.404;8.502;2023-04-01T06:55:27;8.40;99.90
2010;DHT22;1008;47.404;8.502;2023-04-01T06:57:57;8.40;99.90
2010;DHT22;1008;47.404;8.502;2023-04-01T07:00:29;8.30;99.90
2010;DHT22;1008;47.404;8.502;2023-04-01T07:03:05;8.40;99.90
2010;DHT22;1008;47.404;8.502;2023-04-01T07:05:34;8.60;99.90
2010;DHT22;1008;47.404;8.502;2023-04-01T07:08:04;8.50;99.90
2010;DHT22;1008;47.404;8.502;2023-04-01T07:10:38;8.60;99.90
2010;DHT22;1008;47.404;8.502;2023-04-01T07:13:14;8.90;99.90
2010;DHT22;1008;47.404;8.502;2023-04-01T07:15:45;8.60;99.90
2010;DHT22;1008;47.404;8.502;2023-04-01T07:18:15;8.70;99.90
2010;DHT22;1008;47.404;8.502;2023-04-01T07:20:44;8.50;99.90
2010;DHT22;1008;47.404;8.502;2023-04-01T07:23:19;8.50;99.90
2010;DHT22;1008;47.404;8.502;2023-04-01T07:25:51;8.50;99.90
2010;DHT22;1008;47.404;8.502;2023-04-01T07:28:18;8.50;99.90
2010;DHT22;1008;47.404;8.502;2023-04-01T07:30:52;8.40;99.90
2010;DHT22;1008;47.404;8.502;2023-04-01T07:33:28;8.40;99.90
2010;DHT22;1008;47.404;8.502;2023-04-01T07:36:05;8.30;99.90
2010;DHT22;1008;47.404;8.502;2023-04-01T07:38:41;8.30;99.90
2010;DHT22;1008;47.404;8.502;2023-04-01T07:41:18;8.30;99.90
2010;DHT22;1008;47.404;8.502;2023-04-01T07:43:56;8.40;99.90
2010;DHT22;1008;47.404;8.502;2023-04-01T07:46:39;8.30;99.90
2010;DHT22;1008;47.404;8.502;2023-04-01T07:49:15;8.50;99.90
2010;DHT22;1008;47.404;8.502;2023-04-01T07:51:50;8.30;99.90
2010;DHT22;1008;47.404;8.502;2023-04-01T07:54:29;8.20;99.90
2010;DHT22;1008;47.404;8.502;2023-04-01T07:57:02;8.20;99.90
2010;DHT22;1008;47.404;8.502;2023-04-01T07:59:35;8.10;99.90
2010;DHT22;1008;47.404;8.502;2023-04-01T08:02:16;8.10;99.90
2010;DHT22;1008;47.404;8.502;2023-04-01T08:04:58;8.00;99.90
2010;DHT22;1008;47.404;8.502;2023-04-01T08:07:32;8.00;99.90
2010;DHT22;1008;47.404;8.502;2023-04-01T08:10:06;8.00;99.90
2010;DHT22;1008;47.404;8.502;2023-04-01T08:12:43;8.00;99.90
2010;DHT22;1008;47.404;8.502;2023-04-01T08:15:18;8.00;99.90
2010;DHT22;1008;47.404;8.502;2023-04-01T08:17:55;8.00;99.90
2010;DHT22;1008;47.404;8.502;2023-04-01T08:20:29;7.90;99.90
2010;DHT22;1008;47.404;8.502;2023-04-01T08:23:01;8.00;99.90
2010;DHT22;1008;47.404;8.502;2023-04-01T08:25:34;7.90;99.90
2010;DHT22;1008;47.404;8.502;2023-04-01T08:28:11;8.00;99.90
2010;DHT22;1008;47.404;8.502;2023-04-01T08:30:43;8.10;99.90
2010;DHT22;1008;47.404;8.502;2023-04-01T08:33:17;8.10;99.90
2010;DHT22;1008;47.404;8.502;2023-04-01T08:35:50;8.10;99.90
2010;DHT22;1008;47.404;8.502;2023-04-01T08:38:21;8.00;99.90
2010;DHT22;1008;47.404;8.502;2023-04-01T08:40:59;8.00;99.90
2010;DHT22;1008;47.404;8.502;2023-04-01T08:43:46;8.10;99.90
2010;DHT22;1008;47.404;8.502;2023-04-01T08:46:39;8.00;99.90
2010;DHT22;1008;47.404;8.502;2023-04-01T08:49:23;8.00;99.90
2010;DHT22;1008;47.404;8.502;2023-04-01T08:52:27;8.00;99.90
2010;DHT22;1008;47.404;8.502;2023-04-01T08:55:15;8.00;99.90
2010;DHT22;1008;47.404;8.502;2023-04-01T08:57:58;8.10;99.90
2010;DHT22;1008;47.404;8.502;2023-04-01T09:00:31;7.90;99.90
2010;DHT22;1008;47.404;8.502;2023-04-01T09:06:43;7.80;99.90
2010;DHT22;1008;47.404;8.502;2023-04-01T09:09:36;7.90;99.90
2010;DHT22;1008;47.404;8.502;2023-04-01T09:12:25;7.90;99.90
2010;DHT22;1008;47.404;8.502;2023-04-01T09:15:07;8.20;99.90
2010;DHT22;1008;47.404;8.502;2023-04-01T09:18:09;8.00;99.90
2010;DHT22;1008;47.404;8.502;2023-04-01T09:20:45;8.10;99.90
2010;DHT22;1008;47.404;8.502;2023-04-01T09:23:26;8.20;99.90
2010;DHT22;1008;47.404;8.502;2023-04-01T09:26:08;8.20;99.90
2010;DHT22;1008;47.404;8.502;2023-04-01T09:28:42;8.10;99.90
2010;DHT22;1008;47.404;8.502;2023-04-01T09:31:25;8.10;99.90
2010;DHT22;1008;47.404;8.502;2023-04-01T09:34:15;8.10;99.90
2010;DHT22;1008;47.404;8.502;2023-04-01T09:36:55;8.10;99.90
2010;DHT22;1008;47.404;8.502;2023-04-01T09:39:35;8.20;99.90
2010;DHT22;1008;47.404;8.502;2023-04-01T09:42:37;8.20;99.90
2010;DHT22;1008;47.404;8.502;2023-04-01T09:45:17;8.30;99.90
2010;DHT22;1008;47.404;8.502;2023-04-01T09:48:01;8.40;99.90
2010;DHT22;1008;47.404;8.502;2023-04-01T09:50:39;8.40;99.90
2010;DHT22;1008;47.404;8.502;2023-04-01T09:53:19;8.60;99.90
2010;DHT22;1008;47.404;8.502;2023-04-01T10:03:05;8.90;99.90
2010;DHT22;1008;47.404;8.502;2023-04-01T10:09:02;9.00;99.90
2010;DHT22;1008;47.404;8.502;2023-04-01T10:21:25;9.00;99.90
2010;DHT22;1008;47.404;8.502;2023-04-01T10:24:33;9.00;99.90
2010;DHT22;1008;47.404;8.502;2023-04-01T10:27:29;9.00;99.90
2010;DHT22;1008;47.404;8.502;2023-04-01T10:30:27;9.10;99.90
2010;DHT22;1008;47.404;8.502;2023-04-01T10:33:24;9.10;99.90
2010;DHT22;1008;47.404;8.502;2023-04-01T10:36:33;9.10;99.90
2010;DHT22;1008;47.404;8.502;2023-04-01T10:39:49;9.10;99.90
2010;DHT22;1008;47.404;8.502;2023-04-01T10:42:42;9.20;99.90
2010;DHT22;1008;47.404;8.502;2023-04-01T10:48:54;9.20;99.90
2010;DHT22;1008;47.404;8.502;2023-04-01T10:54:47;9.30;99.90
2010;DHT22;1008;47.404;8.502;2023-04-01T10:57:56;9.40;99.90
2010;DHT22;1008;47.404;8.502;2023-04-01T11:00:55;9.30;99.90
2010;DHT22;1008;47.404;8.502;2023-04-01T11:06:57;9.40;99.90
2010;DHT22;1008;47.404;8.502;2023-04-01T11:15:53;9.50;99.90
2010;DHT22;1008;47.404;8.502;2023-04-01T11:18:54;9.60;99.90
2010;DHT22;1008;47.404;8.502;2023-04-01T11:25:02;9.40;99.90
2010;DHT22;1008;47.404;8.502;2023-04-01T11:27:57;9.50;99.90
2010;DHT22;1008;47.404;8.502;2023-04-01T11:30:49;9.40;99.90
2010;DHT22;1008;47.404;8.502;2023-04-01T11:33:25;9.50;99.90
2010;DHT22;1008;47.404;8.502;2023-04-01T11:36:09;9.30;99.90
2010;DHT22;1008;47.404;8.502;2023-04-01T11:39:03;9.20;99.90
2010;DHT22;1008;47.404;8.502;2023-04-01T11:41:41;9.20;99.90
2010;DHT22;1008;47.404;8.502;2023-04-01T11:44:17;9.20;99.90
2010;DHT22;1008;47.404;8.502;2023-04-01T11:47:10;9.20;99.90
2010;DHT22;1008;47.404;8.502;2023-04-01T11:49:50;9.30;99.90
2010;DHT22;1008;47.404;8.502;2023-04-01T11:52:32;9.50;99.90
2010;DHT22;1008;47.404;8.502;2023-04-01T11:55:10;9.40;99.90
2010;DHT22;1008;47.404;8.502;2023-04-01T11:58:11;9.40;99.90
2010;DHT22;1008;47.404;8.502;2023-04-01T12:03:54;9.60;99.90
2010;DHT22;1008;47.404;8.502;2023-04-01T12:06:30;9.60;99.90
2010;DHT22;1008;47.404;8.502;2023-04-01T12:09:06;10.10;99.90
2010;DHT22;1008;47.404;8.502;2023-04-01T12:11:42;9.80;99.90
2010;DHT22;1008;47.404;8.502;2023-04-01T12:14:18;10.20;99.90
2010;DHT22;1008;47.404;8.502;2023-04-01T12:16:54;10.00;99.90
2010;DHT22;1008;47.404;8.502;2023-04-01T12:19:28;10.10;99.90
2010;DHT22;1008;47.404;8.502;2023-04-01T12:22:10;10.10;99.90
2010;DHT22;1008;47.404;8.502;2023-04-01T12:24:46;10.20;99.90
2010;DHT22;1008;47.404;8.502;2023-04-01T12:27:32;10.20;99.90
2010;DHT22;1008;47.404;8.502;2023-04-01T12:30:21;9.90;99.90
2010;DHT22;1008;47.404;8.502;2023-04-01T12:32:59;9.80;99.90
2010;DHT22;1008;47.404;8.502;2023-04-01T12:35:27;9.70;99.90
2010;DHT22;1008;47.404;8.502;2023-04-01T12:38:14;9.80;99.90
2010;DHT22;1008;47.404;8.502;2023-04-01T12:40:57;9.80;99.90
2010;DHT22;1008;47.404;8.502;2023-04-01T12:46:50;10.30;99.90
2010;DHT22;1008;47.404;8.502;2023-04-01T12:49:39;10.40;99.90
2010;DHT22;1008;47.404;8.502;2023-04-01T12:52:19;10.60;99.90
2010;DHT22;1008;47.404;8.502;2023-04-01T12:55:18;11.00;99.90
2010;DHT22;1008;47.404;8.502;2023-04-01T13:01:02;11.20;99.90
2010;DHT22;1008;47.404;8.502;2023-04-01T13:03:55;11.10;99.90
2010;DHT22;1008;47.404;8.502;2023-04-01T13:06:39;11.30;99.90
2010;DHT22;1008;47.404;8.502;2023-04-01T13:09:18;11.20;99.90
2010;DHT22;1008;47.404;8.502;2023-04-01T13:11:59;11.20;99.90
2010;DHT22;1008;47.404;8.502;2023-04-01T13:14:53;10.90;99.90
2010;DHT22;1008;47.404;8.502;2023-04-01T13:17:30;11.20;99.90
2010;DHT22;1008;47.404;8.502;2023-04-01T13:20:05;11.10;99.90
2010;DHT22;1008;47.404;8.502;2023-04-01T13:22:47;11.20;99.90
2010;DHT22;1008;47.404;8.502;2023-04-01T13:25:22;11.00;99.90
2010;DHT22;1008;47.404;8.502;2023-04-01T13:27:58;11.20;99.90
2010;DHT22;1008;47.404;8.502;2023-04-01T13:30:30;11.30;99.90
2010;DHT22;1008;47.404;8.502;2023-04-01T13:33:01;11.40;99.90
2010;DHT22;1008;47.404;8.502;2023-04-01T13:35:38;11.30;99.90
2010;DHT22;1008;47.404;8.502;2023-04-01T13:38:32;11.20;99.90
2010;DHT22;1008;47.404;8.502;2023-04-01T13:41:13;11.10;99.90
2010;DHT22;1008;47.404;8.502;2023-04-01T13:43:45;11.00;99.90
2010;DHT22;1008;47.404;8.502;2023-04-01T13:46:28;11.10;99.90
2010;DHT22;1008;47.404;8.502;2023-04-01T13:52:07;11.40;99.90
2010;DHT22;1008;47.404;8.502;2023-04-01T13:54:46;11.20;99.90
2010;DHT22;1008;47.404;8.502;2023-04-01T13:57:27;11.20;99.90
2010;DHT22;1008;47.404;8.502;2023-04-01T14:00:10;11.20;99.90
2010;DHT22;1008;47.404;8.502;2023-04-01T14:03:09;11.30;99.90
2010;DHT22;1008;47.404;8.502;2023-04-01T14:05:47;11.30;99.90
2010;DHT22;1008;47.404;8.502;2023-04-01T14:08:29;11.30;99.90
2010;DHT22;1008;47.404;8.502;2023-04-01T14:11:10;11.40;99.90
2010;DHT22;1008;47.404;8.502;2023-04-01T14:13:43;11.40;99.90
2010;DHT22;1008;47.404;8.502;2023-04-01T14:16:34;11.30;99.90
2010;DHT22;1008;47.404;8.502;2023-04-01T14:19:16;11.30;99.90
2010;DHT22;1008;47.404;8.502;2023-04-01T14:21:57;11.40;99.90
2010;DHT22;1008;47.404;8.502;2023-04-01T14:24:42;11.20;99.90
2010;DHT22;1008;47.404;8.502;2023-04-01T14:30:35;10.90;99.90
2010;DHT22;1008;47.404;8.502;2023-04-01T14:33:19;10.60;99.90
2010;DHT22;1008;47.404;8.502;2023-04-01T14:35:56;10.40;99.90
2010;DHT22;1008;47.404;8.502;2023-04-01T14:38:35;10.20;99.90
2010;DHT22;1008;47.404;8.502;2023-04-01T14:41:25;9.30;99.90
2010;DHT22;1008;47.404;8.502;2023-04-01T14:44:11;9.20;99.90
2010;DHT22;1008;47.404;8.502;2023-04-01T14:47:13;9.20;99.90
2010;DHT22;1008;47.404;8.502;2023-04-01T14:49:42;9.30;99.90
2010;DHT22;1008;47.404;8.502;2023-04-01T14:52:14;9.50;99.90
2010;DHT22;1008;47.404;8.502;2023-04-01T14:54:44;9.30;99.90
2010;DHT22;1008;47.404;8.502;2023-04-01T14:57:16;9.20;99.90
2010;DHT22;1008;47.404;8.502;2023-04-01T14:59:51;9.20;99.90
2010;DHT22;1008;47.404;8.502;2023-04-01T15:02:35;9.30;99.90
2010;DHT22;1008;47.404;8.502;2023-04-01T15:05:12;9.10;99.90
2010;DHT22;1008;47.404;8.502;2023-04-01T15:08:06;9.20;99.90
2010;DHT22;1008;47.404;8.502;2023-04-01T15:11:27;9.20;99.90
2010;DHT22;1008;47.404;8.502;2023-04-01T15:17:33;9.00;99.90
2010;DHT22;1008;47.404;8.502;2023-04-01T15:20:24;9.30;99.90
2010;DHT22;1008;47.404;8.502;2023-04-01T15:23:06;9.80;99.90
2010;DHT22;1008;47.404;8.502;2023-04-01T15:25:51;10.20;99.90
2010;DHT22;1008;47.404;8.502;2023-04-01T15:28:26;10.40;99.90
2010;DHT22;1008;47.404;8.502;2023-04-01T15:31:01;10.50;99.90
2010;DHT22;1008;47.404;8.502;2023-04-01T15:33:46;10.40;99.90
2010;DHT22;1008;47.404;8.502;2023-04-01T15:36:25;10.30;99.90
2010;DHT22;1008;47.404;8.502;2023-04-01T15:39:00;10.50;99.90
2010;DHT22;1008;47.404;8.502;2023-04-01T15:41:38;10.60;99.90
2010;DHT22;1008;47.404;8.502;2023-04-01T15:44:33;10.70;99.90
2010;DHT22;1008;47.404;8.502;2023-04-01T15:47:08;10.90;99.90
2010;DHT22;1008;47.404;8.502;2023-04-01T15:49:56;11.10;99.90
2010;DHT22;1008;47.404;8.502;2023-04-01T15:52:34;11.10;99.90
2010;DHT22;1008;47.404;8.502;2023-04-01T15:55:17;11.20;99.90
2010;DHT22;1008;47.404;8.502;2023-04-01T15:57:54;11.20;99.90
2010;DHT22;1008;47.404;8.502;2023-04-01T16:00:26;11.50;99.90
2010;DHT22;1008;47.404;8.502;2023-04-01T16:05:59;12.00;99.90
2010;DHT22;1008;47.404;8.502;2023-04-01T16:08:49;12.40;99.90
2010;DHT22;1008;47.404;8.502;2023-04-01T16:11:27;12.50;99.90
2010;DHT22;1008;47.404;8.502;2023-04-01T16:14:04;12.40;99.90
2010;DHT22;1008;47.404;8.502;2023-04-01T16:16:47;12.40;99.90
2010;DHT22;1008;47.404;8.502;2023-04-01T16:19:31;12.10;99.90
2010;DHT22;1008;47.404;8.502;2023-04-01T16:22:06;11.60;99.90
2010;DHT22;1008;47.404;8.502;2023-04-01T16:24:39;11.40;99.90
2010;DHT22;1008;47.404;8.502;2023-04-01T16:27:11;11.10;99.90
2010;DHT22;1008;47.404;8.502;2023-04-01T16:29:45;11.00;99.90
2010;DHT22;1008;47.404;8.502;2023-04-01T16:32:18;11.00;99.90
2010;DHT22;1008;47.404;8.502;2023-04-01T16:34:56;11.00;99.90
2010;DHT22;1008;47.404;8.502;2023-04-01T16:37:33;10.70;99.90
2010;DHT22;1008;47.404;8.502;2023-04-01T16:40:13;10.50;99.90
2010;DHT22;1008;47.404;8.502;2023-04-01T16:42:46;10.40;99.90
2010;DHT22;1008;47.404;8.502;2023-04-01T16:45:23;10.30;99.90
2010;DHT22;1008;47.404;8.502;2023-04-01T16:47:55;10.00;99.90
2010;DHT22;1008;47.404;8.502;2023-04-01T16:50:24;9.60;99.90
2010;DHT22;1008;47.404;8.502;2023-04-01T16:52:59;9.50;99.90
2010;DHT22;1008;47.404;8.502;2023-04-01T16:55:43;9.50;99.90
2010;DHT22;1008;47.404;8.502;2023-04-01T16:58:20;9.50;99.90
2010;DHT22;1008;47.404;8.502;2023-04-01T17:00:49;9.50;99.90
2010;DHT22;1008;47.404;8.502;2023-04-01T17:03:21;9.60;99.90
2010;DHT22;1008;47.404;8.502;2023-04-01T17:06:02;9.60;99.90
2010;DHT22;1008;47.404;8.502;2023-04-01T17:08:45;9.70;99.90
2010;DHT22;1008;47.404;8.502;2023-04-01T17:11:19;9.70;99.90
2010;DHT22;1008;47.404;8.502;2023-04-01T17:13:53;9.70;99.90
2010;DHT22;1008;47.404;8.502;2023-04-01T17:16:48;9.70;99.90
2010;DHT22;1008;47.404;8.502;2023-04-01T17:19:28;9.70;99.90
2010;DHT22;1008;47.404;8.502;2023-04-01T17:22:04;9.70;99.90
2010;DHT22;1008;47.404;8.502;2023-04-01T17:24:48;9.80;99.90
2010;DHT22;1008;47.404;8.502;2023-04-01T17:27:26;9.80;99.90
2010;DHT22;1008;47.404;8.502;2023-04-01T17:30:12;9.60;99.90
2010;DHT22;1008;47.404;8.502;2023-04-01T17:32:50;9.60;99.90
2010;DHT22;1008;47.404;8.502;2023-04-01T17:35:26;9.70;99.90
2010;DHT22;1008;47.404;8.502;2023-04-01T17:38:01;9.80;99.90
2010;DHT22;1008;47.404;8.502;2023-04-01T17:40:38;9.50;99.90
2010;DHT22;1008;47.404;8.502;2023-04-01T17:43:12;9.40;99.90
2010;DHT22;1008;47.404;8.502;2023-04-01T17:45:47;9.30;99.90
2010;DHT22;1008;47.404;8.502;2023-04-01T17:48:21;9.30;99.90
2010;DHT22;1008;47.404;8.502;2023-04-01T17:51:10;9.30;99.90
2010;DHT22;1008;47.404;8.502;2023-04-01T17:53:47;9.30;99.90
2010;DHT22;1008;47.404;8.502;2023-04-01T17:56:29;9.30;99.90
2010;DHT22;1008;47.404;8.502;2023-04-01T17:59:04;9.30;99.90
2010;DHT22;1008;47.404;8.502;2023-04-01T18:01:44;9.20;99.90
2010;DHT22;1008;47.404;8.502;2023-04-01T18:07:26;9.20;99.90
2010;DHT22;1008;47.404;8.502;2023-04-01T18:10:05;9.20;99.90
2010;DHT22;1008;47.404;8.502;2023-04-01T18:12:56;9.20;99.90
2010;DHT22;1008;47.404;8.502;2023-04-01T18:15:31;9.20;99.90
2010;DHT22;1008;47.404;8.502;2023-04-01T18:18:10;9.20;99.90
2010;DHT22;1008;47.404;8.502;2023-04-01T18:20:53;9.30;99.90
2010;DHT22;1008;47.404;8.502;2023-04-01T18:23:28;9.20;99.90
2010;DHT22;1008;47.404;8.502;2023-04-01T18:26:04;9.40;99.90
2010;DHT22;1008;47.404;8.502;2023-04-01T18:28:36;9.30;99.90